Terminal Aerodrome Forecast
Issued by NWS

Home | Current Version | Previous Version | Text Only | Print | Product List | Glossary On
Versions: 1 2 3 4 5 6 7 8 9 10 11 12 13 14
000
FTUS45 KGJT 241912 AAA
TAFTEX
TAF AMD
KTEX 241912Z 2419/2518 27008KT P6SM VCTS SCT050CB SCT100
      TEMPO 2421/2501 VRB18G30KT -TSRA BKN050CB
     FM250200 06004KT P6SM SCT100
     FM250600 12004KT P6SM SCT120
     FM251400 VRB03KT P6SM SCT120=

USA.gov is the U.S. government's official web portal to all federal, state and local government web resources and services.